Time;durP1;ratioP1;P1;durP2;ratioP2;P2;SDS_P1;SDS_P2;PMS_P1;PMS_P2;Temp;Humidity;BMP_temperature;BMP_pressure;BME280_temperature;BME280_humidity;BME280_pressure;Samples;Min_cycle;Max_cycle;Signal;HPM_P1;HPM_P2
2024/01/22 00:01:15;;;;;;;27.10;18.85;;;3.60;1.00;;;1.81;100.00;101235.09;5072220;28;20044;-78
2024/01/22 00:03:42;;;;;;;27.45;20.40;;;3.40;1.00;;;1.84;100.00;101235.16;5053321;28;20067;-78
2024/01/22 00:06:09;;;;;;;26.70;19.73;;;3.40;1.00;;;1.91;100.00;101222.34;5057800;28;20063;-78
2024/01/22 00:08:37;;;;;;;28.35;18.77;;;4.60;1.00;;;1.89;100.00;101224.91;5072439;28;20052;-78
2024/01/22 00:11:04;;;;;;;26.80;16.52;;;3.40;1.00;;;1.84;100.00;101205.75;5072855;28;20047;-78
2024/01/22 00:13:31;;;;;;;20.33;15.52;;;3.50;1.00;;;1.83;100.00;101199.66;5072336;28;20097;-78
2024/01/22 00:16:00;;;;;;;20.73;14.23;;;3.50;1.00;;;1.81;100.00;101196.16;5055310;28;20051;-78
2024/01/22 00:18:27;;;;;;;21.88;14.18;;;3.40;1.00;;;1.89;100.00;101190.31;5064335;28;20054;-82
2024/01/22 00:20:55;;;;;;;22.10;14.32;;;3.30;1.00;;;1.73;100.00;101176.06;5072673;28;20047;-78
2024/01/22 00:23:22;;;;;;;21.45;14.20;;;3.20;1.00;;;1.59;100.00;101179.16;5073389;28;20055;-78
2024/01/22 00:25:50;;;;;;;16.58;12.10;;;3.20;1.00;;;1.54;100.00;101175.59;5040226;28;20524;-79
2024/01/22 00:28:17;;;;;;;17.52;10.75;;;3.20;1.00;;;1.47;100.00;101153.78;5068702;28;20053;-78
2024/01/22 00:30:44;;;;;;;17.30;10.10;;;3.20;1.00;;;1.68;100.00;101173.34;5089093;28;20584;-77
2024/01/22 00:33:11;;;;;;;14.80;9.68;;;4.30;99.90;;;1.77;100.00;101185.66;5060747;28;20119;-78
2024/01/22 00:35:38;;;;;;;12.23;8.38;;;3.30;99.90;;;1.81;100.00;101179.72;5092849;28;20052;-77
2024/01/22 00:38:06;;;;;;;14.18;10.00;;;3.40;99.90;;;1.89;100.00;101190.31;5086702;28;20040;-78
2024/01/22 00:40:33;;;;;;;20.15;11.65;;;3.40;99.90;;;1.84;100.00;101166.81;5054574;28;20056;-78
2024/01/22 00:43:00;;;;;;;15.00;11.70;;;3.50;99.90;;;1.75;100.00;101154.50;5062187;28;20040;-77
2024/01/22 00:45:27;;;;;;;14.27;10.25;;;3.40;99.90;;;1.72;100.00;101158.72;5071130;28;20138;-77
2024/01/22 00:47:54;;;;;;;13.93;11.07;;;3.40;99.90;;;1.68;100.00;101173.34;5070279;28;20493;-78
2024/01/22 00:50:21;;;;;;;15.82;10.02;;;3.30;99.90;;;1.66;100.00;101177.59;5067666;28;20055;-78
2024/01/22 00:52:48;;;;;;;13.13;9.80;;;3.20;99.90;;;1.59;100.00;101157.56;5087229;28;20047;-78
2024/01/22 00:55:15;;;;;;;13.43;10.43;;;3.20;99.90;;;1.61;100.00;101174.88;5054398;28;20051;-78
2024/01/22 00:57:42;;;;;;;14.35;10.68;;;3.20;99.90;;;1.60;100.00;101170.53;5053285;28;20051;-78
2024/01/22 01:00:12;;;;;;;15.48;10.75;;;3.10;99.90;;;1.53;100.00;101164.31;5071161;28;20044;-78
2024/01/22 01:02:39;;;;;;;16.00;10.98;;;3.10;99.90;;;1.51;100.00;101166.00;5069395;28;20052;-78
2024/01/22 01:05:06;;;;;;;13.85;10.35;;;3.10;99.90;;;1.44;100.00;101147.63;5071064;28;20052;-78
2024/01/22 01:07:34;;;;;;;11.90;9.75;;;3.00;99.90;;;1.45;100.00;101152.88;5071332;28;20075;-78
2024/01/22 01:10:02;;;;;;;10.50;9.18;;;3.10;99.90;;;1.42;100.00;101143.28;5072023;28;20051;-78
2024/01/22 01:12:29;;;;;;;12.00;9.10;;;3.10;99.90;;;1.39;100.00;101135.44;5055165;28;20048;-78
2024/01/22 01:14:56;;;;;;;11.93;9.15;;;3.10;99.90;;;1.36;100.00;101124.09;5054658;28;20143;-78
2024/01/22 01:17:23;;;;;;;11.30;9.40;;;3.00;99.90;;;1.49;100.00;101133.97;5070794;28;20050;-78
2024/01/22 01:19:51;;;;;;;12.23;8.85;;;3.00;99.90;;;1.37;100.00;101116.38;5071603;28;20061;-78
2024/01/22 01:22:18;;;;;;;12.98;9.35;;;3.00;99.90;;;1.42;100.00;101130.31;5067279;28;20070;-78
2024/01/22 01:24:45;;;;;;;11.63;9.32;;;3.00;99.90;;;1.32;100.00;101107.56;5070233;28;20398;-78
2024/01/22 01:27:12;;;;;;;10.73;8.80;;;3.00;99.90;;;1.41;100.00;101125.13;5070811;28;20040;-78
2024/01/22 01:29:39;;;;;;;12.80;9.27;;;2.90;99.90;;;1.44;100.00;101129.50;5071508;28;20048;-78
2024/01/22 01:32:07;;;;;;;12.65;9.60;;;3.00;99.90;;;1.37;100.00;101125.84;5061890;28;20052;-79
2024/01/22 01:34:34;;;;;;;12.02;10.32;;;2.90;99.90;;;1.35;100.00;101120.66;5052734;28;20078;-78
2024/01/22 01:37:02;;;;;;;15.80;11.63;;;3.00;99.90;;;1.37;100.00;101113.78;5060713;28;20453;-78
2024/01/22 01:39:29;;;;;;;15.82;10.90;;;3.10;99.90;;;1.38;100.00;101117.22;5058856;28;20051;-78
2024/01/22 01:41:56;;;;;;;13.32;9.85;;;3.00;99.90;;;1.32;100.00;101111.91;5091165;28;20068;-78
2024/01/22 01:44:52;;;;;;;11.50;9.35;;;3.00;99.90;;;1.34;100.00;101100.75;5042099;28;20048;-79
2024/01/22 01:47:19;;;;;;;12.82;10.27;;;3.00;99.90;;;1.39;100.00;101113.81;5054975;28;20113;-79
2024/01/22 01:49:47;;;;;;;13.20;9.48;;;2.90;99.90;;;1.38;100.00;101104.25;5059259;28;20414;-79
2024/01/22 01:52:16;;;;;;;10.30;8.15;;;3.00;99.90;;;1.37;100.00;101098.22;5058630;28;20067;-79
2024/01/22 01:54:46;;;;;;;10.32;7.78;;;3.00;99.90;;;1.44;100.00;101101.84;5075040;28;20047;-79
2024/01/22 01:57:13;;;;;;;10.10;7.65;;;3.00;99.90;;;1.37;100.00;101080.06;5054224;28;20047;-79
2024/01/22 01:59:43;;;;;;;13.52;8.25;;;3.00;99.90;;;1.42;100.00;101091.44;5059314;28;20108;-78
2024/01/22 02:02:10;;;;;;;12.07;7.80;;;3.00;99.90;;;1.39;100.00;101082.69;5061402;28;20082;-79
2024/01/22 02:04:37;;;;;;;9.63;7.05;;;3.00;99.90;;;1.48;100.00;101093.31;5077240;28;20074;-79
2024/01/22 02:07:05;;;;;;;10.30;7.75;;;3.50;99.90;;;1.46;100.00;101084.59;5075427;28;20112;-78
2024/01/22 02:09:47;;;;;;;9.43;6.80;;;3.00;99.90;;;1.44;100.00;101081.09;5075860;28;20147;-79
2024/01/22 02:12:19;;;;;;;13.18;9.27;;;3.10;99.90;;;1.38;100.00;101071.44;5066737;28;20048;-77
2024/01/22 02:14:47;;;;;;;13.52;8.27;;;3.00;99.90;;;1.40;100.00;101080.13;5072889;28;20424;-77
2024/01/22 02:17:17;;;;;;;17.92;12.15;;;3.00;99.90;;;1.44;100.00;101083.69;5072653;28;20491;-77
2024/01/22 02:19:45;;;;;;;16.55;11.10;;;3.00;99.90;;;1.42;100.00;101073.28;5072347;28;20110;-77
2024/01/22 02:22:13;;;;;;;11.25;7.65;;;3.00;99.90;;;1.39;100.00;101065.41;5064503;28;20103;-77
2024/01/22 02:24:45;;;;;;;12.38;8.02;;;3.00;99.90;;;1.49;100.00;101074.31;5088590;28;20068;-77
2024/01/22 02:27:12;;;;;;;9.27;6.72;;;3.00;99.90;;;1.49;100.00;101068.25;5071599;28;20047;-77
2024/01/22 02:29:39;;;;;;;8.80;7.10;;;3.00;99.90;;;1.41;100.00;101048.19;5072114;28;20147;-77
2024/01/22 02:32:06;;;;;;;11.30;8.15;;;3.10;99.90;;;1.44;100.00;101052.56;5072286;28;20043;-77
2024/01/22 02:34:33;;;;;;;10.50;6.93;;;1.30;99.90;;;1.46;100.00;101037.03;5088306;28;20098;-77
2024/01/22 02:37:00;;;;;;;12.27;6.72;;;2.90;99.90;;;1.56;100.00;101041.63;5070859;28;20573;-77
2024/01/22 02:39:27;;;;;;;9.27;6.47;;;3.00;99.90;;;1.52;100.00;101026.81;5089724;28;20048;-77
2024/01/22 02:41:54;;;;;;;11.00;6.72;;;3.00;99.90;;;1.55;100.00;101011.31;5063556;28;20414;-77
2024/01/22 02:44:22;;;;;;;11.40;6.95;;;3.10;99.90;;;1.61;100.00;101006.25;5067987;28;20040;-77
2024/01/22 02:46:49;;;;;;;10.68;6.20;;;3.20;99.90;;;1.73;100.00;101021.25;5054474;28;20059;-77
2024/01/22 02:49:16;;;;;;;10.30;5.55;;;3.20;99.90;;;1.73;100.00;101002.22;5071016;28;20040;-77
2024/01/22 02:51:43;;;;;;;6.43;4.65;;;3.20;99.90;;;1.70;100.00;100984.84;5061697;28;20090;-77
2024/01/22 02:54:12;;;;;;;10.88;5.47;;;3.20;99.90;;;1.68;100.00;100984.84;5071486;28;20117;-77
2024/01/22 02:56:40;;;;;;;9.40;5.43;;;3.20;99.90;;;1.79;100.00;100985.06;5054038;28;20127;-77
2024/01/22 02:59:07;;;;;;;8.80;5.22;;;3.40;99.90;;;1.83;100.00;100978.22;5070505;28;20042;-77
2024/01/22 03:01:34;;;;;;;11.52;5.10;;;3.40;99.90;;;1.90;100.00;100971.44;5070991;28;20051;-77
2024/01/22 03:04:01;;;;;;;9.82;4.65;;;3.50;77.10;;;2.11;100.00;100973.63;5071441;28;20299;-77
2024/01/22 03:06:30;;;;;;;6.25;4.18;;;3.60;4.10;;;2.20;100.00;100976.41;5070396;28;20044;-76
2024/01/22 03:08:57;;;;;;;6.88;3.85;;;3.70;9.90;;;2.30;100.00;100981.78;5070383;28;20508;-77
2024/01/22 03:11:24;;;;;;;5.88;3.17;;;3.70;1.00;;;2.33;100.00;100969.72;5066988;28;20515;-76
2024/01/22 03:13:51;;;;;;;5.68;4.03;;;3.90;1.00;;;2.38;100.00;100956.81;5032959;28;20043;-77
2024/01/22 03:16:21;;;;;;;6.35;3.78;;;3.90;1.00;;;2.46;100.00;100963.06;5083093;28;20036;-77
2024/01/22 03:18:49;;;;;;;4.95;3.45;;;4.00;1.00;;;2.54;100.00;100971.00;5052684;28;20052;-77
2024/01/22 03:21:16;;;;;;;5.28;3.78;;;3.90;99.90;;;2.47;100.00;100957.00;5058138;28;20036;-77
2024/01/22 03:23:43;;;;;;;6.28;3.78;;;4.10;99.90;;;2.52;100.00;100957.97;5064765;28;20078;-77
2024/01/22 03:26:21;;;;;;;4.50;3.25;;;4.00;99.90;;;2.53;100.00;100962.31;5060729;28;20036;-76
2024/01/22 03:28:50;;;;;;;5.68;3.08;;;4.10;99.90;;;2.54;100.00;100948.47;5068878;28;20809;-76
2024/01/22 03:31:28;;;;;;;4.28;3.78;;;4.10;99.90;;;2.66;100.00;100963.44;5063600;28;20051;-77
2024/01/22 03:33:56;;;;;;;5.55;3.75;;;4.10;99.90;;;2.66;100.00;100966.03;5044993;28;20418;-77
2024/01/22 03:36:24;;;;;;;8.35;5.38;;;4.20;99.90;;;2.61;100.00;100951.19;5078960;28;20052;-77
2024/01/22 03:38:51;;;;;;;9.48;6.82;;;4.10;99.90;;;2.67;100.00;100957.38;5061719;28;20123;-77
2024/01/22 03:41:18;;;;;;;13.77;12.77;;;4.10;99.90;;;2.66;100.00;100952.16;5070166;28;20189;-77
2024/01/22 03:43:46;;;;;;;13.45;11.85;;;4.30;99.90;;;2.70;100.00;100953.94;5069172;28;20039;-77
2024/01/22 03:46:14;;;;;;;6.88;6.20;;;4.20;99.90;;;2.72;100.00;100947.03;5078255;28;20044;-77
2024/01/22 03:48:41;;;;;;;8.20;7.45;;;4.10;99.90;;;2.65;100.00;100946.09;5069797;28;20090;-77
2024/01/22 03:51:09;;;;;;;7.35;5.90;;;4.30;99.90;;;2.68;100.00;100935.75;5053027;28;20751;-77
2024/01/22 03:53:36;;;;;;;6.95;4.88;;;4.30;99.90;;;2.80;100.00;100947.19;5069656;28;20122;-77
2024/01/22 03:56:05;;;;;;;8.80;4.70;;;4.30;99.90;;;2.82;100.00;100941.16;5085847;28;20039;-77
2024/01/22 03:58:33;;;;;;;6.43;4.28;;;4.30;99.90;;;2.84;100.00;100936.00;5087747;28;20504;-77
2024/01/22 04:01:01;;;;;;;5.63;3.72;;;4.30;99.90;;;2.82;100.00;100935.09;5054673;28;20094;-78
2024/01/22 04:03:30;;;;;;;5.78;5.20;;;4.30;99.90;;;2.80;100.00;100932.47;5072039;28;20043;-77
2024/01/22 04:05:58;;;;;;;6.38;5.07;;;4.30;99.90;;;2.89;100.00;100943.84;5072348;28;20050;-77
2024/01/22 04:08:25;;;;;;;4.25;3.17;;;4.40;99.90;;;2.97;100.00;100948.38;5071714;28;20445;-77
2024/01/22 04:10:52;;;;;;;5.63;3.75;;;4.40;99.90;;;2.82;100.00;100922.13;5063289;28;20490;-77
2024/01/22 04:13:19;;;;;;;4.07;3.20;;;6.00;99.90;;;3.01;100.00;100933.66;5054225;28;20052;-77
2024/01/22 04:15:55;;;;;;;4.80;3.20;;;4.40;99.90;;;3.05;100.00;100932.91;5083095;28;20090;-77
2024/01/22 04:18:22;;;;;;;4.75;2.90;;;4.60;99.90;;;3.07;100.00;100935.50;5070178;28;20489;-77
2024/01/22 04:20:49;;;;;;;4.68;3.47;;;4.60;99.90;;;3.06;100.00;100911.25;5062193;28;20154;-77
2024/01/22 04:23:16;;;;;;;4.47;3.22;;;4.60;99.90;;;3.16;100.00;100924.38;5090283;28;20402;-77
2024/01/22 04:25:44;;;;;;;5.13;3.10;;;4.60;99.90;;;3.18;100.00;100923.53;5054986;28;20048;-77
2024/01/22 04:28:11;;;;;;;5.20;3.05;;;4.60;99.90;;;3.21;100.00;100928.78;5084702;28;20498;-77
2024/01/22 04:30:38;;;;;;;5.72;3.38;;;4.70;99.90;;;3.16;100.00;100919.16;5069101;28;20508;-77
2024/01/22 04:33:09;;;;;;;5.32;3.80;;;4.70;99.90;;;3.24;100.00;100934.03;5067450;28;20055;-77
2024/01/22 04:35:36;;;;;;;3.65;2.83;;;4.60;99.90;;;3.19;100.00;100922.69;5068854;28;20414;-77
2024/01/22 04:38:03;;;;;;;5.40;3.30;;;4.70;1.00;;;3.17;100.00;100911.41;5071145;28;20043;-78
2024/01/22 04:40:30;;;;;;;4.15;3.75;;;4.60;1.00;;;3.11;100.00;100906.97;5085319;28;20040;-77
2024/01/22 04:42:57;;;;;;;5.00;3.30;;;4.60;1.00;;;3.17;100.00;100921.78;5072091;28;20067;-77
2024/01/22 04:45:24;;;;;;;5.65;3.33;;;4.70;1.00;;;3.16;100.00;100908.75;5068316;28;20041;-77
2024/01/22 04:47:52;;;;;;;5.43;3.40;;;4.70;1.00;;;3.17;100.00;100897.50;5070311;28;20044;-77
2024/01/22 04:50:19;;;;;;;5.13;4.30;;;4.60;1.00;;;3.16;100.00;100891.44;5071786;28;20066;-77
2024/01/22 04:52:46;;;;;;;6.35;5.63;;;4.60;1.00;;;3.10;100.00;100878.34;5070924;28;20087;-77
2024/01/22 04:55:13;;;;;;;5.78;4.78;;;4.70;1.00;;;3.13;100.00;100886.22;5063785;28;20056;-77
2024/01/22 04:57:48;;;;;;;6.18;4.97;;;4.60;1.00;;;3.18;100.00;100884.53;5053884;28;20055;-77
2024/01/22 05:00:16;;;;;;;6.28;4.80;;;4.60;1.00;;;3.16;100.00;100877.56;5064864;28;20037;-77
2024/01/22 05:02:43;;;;;;;6.30;4.22;;;4.60;11.40;;;3.16;100.00;100873.25;5068490;28;20605;-78
2024/01/22 05:05:12;;;;;;;6.40;3.78;;;5.60;1.00;;;3.15;100.00;100855.00;5071231;28;20051;-77
2024/01/22 05:07:39;;;;;;;5.53;3.75;;;4.60;10.00;;;3.12;100.00;100850.63;5065543;28;20053;-77
2024/01/22 05:10:09;;;;;;;4.88;3.35;;;4.60;10.50;;;3.10;100.00;100847.13;5058873;28;20129;-77
2024/01/22 05:12:40;;;;;;;5.45;3.17;;;4.60;28.30;;;3.15;100.00;100863.69;5075363;28;20054;-78
2024/01/22 05:15:10;;;;;;;5.28;3.03;;;4.70;34.00;;;3.14;100.00;100851.56;5073034;28;20143;-77
2024/01/22 05:17:37;;;;;;;3.80;2.72;;;4.60;22.90;;;3.15;100.00;100850.69;5056718;28;20071;-77
2024/01/22 05:20:06;;;;;;;6.55;3.45;;;4.60;92.40;;;3.15;100.00;100816.88;5022161;28;20051;-77
2024/01/22 05:22:34;;;;;;;9.30;4.38;;;4.70;99.90;;;3.14;100.00;100820.34;5037694;28;20537;-77
2024/01/22 05:25:02;;;;;;;6.18;5.00;;;4.70;99.90;;;3.15;100.00;100818.59;5033298;28;20040;-77
2024/01/22 05:27:30;;;;;;;18.73;10.32;;;4.70;99.90;;;3.14;100.00;100815.16;5032650;28;20529;-77
2024/01/22 05:29:57;;;;;;;9.18;6.55;;;4.70;99.90;;;3.16;100.00;100797.84;5009281;28;20060;-77
2024/01/22 05:32:24;;;;;;;7.68;5.20;;;4.60;99.90;;;3.07;100.00;100806.38;5029795;28;20073;-77
2024/01/22 05:34:52;;;;;;;6.20;4.60;;;4.60;99.90;;;3.12;100.00;100798.63;5018180;28;20072;-77
2024/01/22 05:37:19;;;;;;;5.25;4.03;;;4.70;99.90;;;3.17;100.00;100804.78;5033898;28;20410;-77
2024/01/22 05:39:46;;;;;;;7.05;4.57;;;4.60;99.90;;;3.17;100.00;100781.38;5034984;28;20045;-78
2024/01/22 05:42:13;;;;;;;7.90;4.72;;;4.70;99.90;;;3.20;100.00;100794.41;5032933;28;20044;-77
2024/01/22 05:44:40;;;;;;;4.07;3.50;;;4.70;99.90;;;3.29;100.00;100785.00;5035195;28;20045;-77
2024/01/22 05:47:07;;;;;;;6.68;4.05;;;6.00;95.40;;;3.37;100.00;100772.94;5037209;28;20053;-76
2024/01/22 05:49:34;;;;;;;11.30;9.05;;;4.80;58.50;;;3.47;100.00;100777.41;5032140;28;20063;-76
2024/01/22 05:52:01;;;;;;;7.32;4.88;;;5.00;1.00;;;3.69;100.00;100780.25;5015243;28;20060;-75
2024/01/22 05:54:29;;;;;;;6.72;3.80;;;5.10;1.00;;;3.84;100.00;100779.56;5040751;28;20457;-79
2024/01/22 05:56:57;;;;;;;6.50;5.20;;;5.90;99.90;;;3.81;100.00;100751.75;5037528;28;20056;-79
2024/01/22 05:59:24;;;;;;;5.97;4.68;;;5.40;1.00;;;4.01;100.00;100755.41;5054601;28;20098;-77
2024/01/22 06:01:54;;;;;;;4.20;3.03;;;5.40;1.00;;;3.77;100.00;100712.66;5069310;28;20058;-78
2024/01/22 06:04:22;;;;;;;;;;;5.50;99.90;;;4.03;100.00;100736.31;5055142;28;20047;-76
2024/01/22 06:06:50;;;;;;;5.88;4.57;;;5.50;99.90;;;4.10;100.00;100734.63;5038715;28;19927;-77
2024/01/22 06:09:17;;;;;;;4.55;3.38;;;5.60;99.90;;;4.16;100.00;100732.09;5023921;28;20107;-77
2024/01/22 06:11:44;;;;;;;4.18;3.55;;;5.60;74.50;;;4.23;100.00;100730.44;5069209;28;20442;-76
2024/01/22 06:14:11;;;;;;;6.50;5.47;;;5.60;5.50;;;4.23;100.00;100725.22;5037813;28;20049;-77
2024/01/22 06:16:38;;;;;;;3.92;3.33;;;5.70;1.00;;;4.24;100.00;100737.38;5062911;28;20044;-76
2024/01/22 06:19:05;;;;;;;4.15;2.83;;;5.70;1.00;;;4.32;100.00;100740.03;5021223;28;20505;-78
2024/01/22 06:21:32;;;;;;;5.82;2.78;;;5.70;99.90;;;4.43;100.00;100735.75;5065621;28;20131;-76
2024/01/22 06:23:59;;;;;;;4.78;2.45;;;5.80;99.90;;;4.40;100.00;100723.59;5071229;28;20052;-77
2024/01/22 06:26:26;;;;;;;3.58;2.83;;;5.80;7.90;;;4.37;100.00;100705.34;5056721;28;20045;-78
2024/01/22 06:28:57;;;;;;;3.88;2.45;;;5.90;1.00;;;4.44;100.00;100702.78;5074762;28;20044;-78
2024/01/22 06:31:24;;;;;;;4.85;2.50;;;5.90;99.90;;;4.52;100.00;100695.88;5042214;28;20109;-76
2024/01/22 06:33:51;;;;;;;4.25;3.13;;;6.00;23.10;;;4.64;100.00;100697.69;5078600;28;20109;-76
2024/01/22 06:36:18;;;;;;;5.32;2.83;;;6.10;1.00;;;4.41;100.00;100672.34;5053196;28;20123;-77
2024/01/22 06:38:45;;;;;;;6.97;3.90;;;6.10;1.00;;;4.75;100.00;100701.22;5071294;28;20095;-81
2024/01/22 06:41:12;;;;;;;5.65;3.55;;;7.10;99.90;;;4.76;100.00;100692.56;5048018;28;20414;-80
2024/01/22 06:43:39;;;;;;;5.40;3.17;;;6.20;89.40;;;4.55;100.00;100641.19;5049985;28;20059;-79
2024/01/22 06:46:07;;;;;;;4.32;3.78;;;6.30;1.00;;;4.86;100.00;100676.94;5050325;28;20040;-76
2024/01/22 06:48:34;;;;;;;9.63;8.73;;;6.30;99.90;;;5.00;100.00;100685.69;5063751;28;20045;-77
2024/01/22 06:51:01;;;;;;;6.15;5.45;;;6.40;76.90;;;5.05;100.00;100683.13;5054418;28;20037;-76
2024/01/22 06:53:30;;;;;;;5.50;4.72;;;6.50;1.00;;;5.11;100.00;100680.50;5055126;28;20075;-78
2024/01/22 06:55:56;;;;;;;4.20;2.90;;;6.50;99.90;;;5.17;100.00;100674.44;5037379;28;20108;-76
2024/01/22 06:58:26;;;;;;;4.75;3.45;;;6.60;99.90;;;5.37;100.00;100657.09;5052963;28;20044;-77
2024/01/22 07:00:53;;;;;;;2.63;2.40;;;6.70;1.00;;;5.56;100.00;100669.31;5052626;28;20133;-77
2024/01/22 07:03:20;;;;;;;3.08;2.28;;;7.00;91.00;;;5.57;100.00;100651.06;5054076;28;20070;-77
2024/01/22 07:05:49;;;;;;;2.92;2.35;;;7.00;1.00;;;5.70;100.00;100659.78;5036315;28;20048;-77
2024/01/22 07:08:17;;;;;;;4.32;2.30;;;7.50;1.00;;;5.64;100.00;100649.34;5052759;28;20056;-76
2024/01/22 07:10:44;;;;;;;3.97;2.70;;;7.10;99.90;;;5.74;100.00;100642.38;5035595;28;20093;-76
2024/01/22 07:13:11;;;;;;;4.90;2.72;;;7.10;99.90;;;5.73;100.00;100643.25;5049362;28;20048;-77
2024/01/22 07:15:42;;;;;;;;;;;7.20;99.90;;;5.78;100.00;100649.31;5057280;28;20049;-74
2024/01/22 07:18:12;;;;;;;2.13;1.80;;;7.10;99.90;;;5.81;100.00;100621.47;5035671;28;20297;-76
2024/01/22 07:20:40;;;;;;;3.55;3.25;;;7.30;99.90;;;5.89;100.00;100628.44;5051520;28;20044;-76
2024/01/22 07:23:09;;;;;;;3.55;2.63;;;7.30;99.90;;;5.92;100.00;100642.38;5055344;28;20053;-75
2024/01/22 07:25:37;;;;;;;3.90;3.15;;;7.30;99.90;;;5.93;100.00;100617.09;5040364;28;20041;-77
2024/01/22 07:28:04;;;;;;;4.40;2.75;;;7.30;45.40;;;5.97;100.00;100618.88;5051182;28;20121;-78
2024/01/22 07:30:32;;;;;;;82.97;63.15;;;7.40;53.20;;;6.00;100.00;100624.06;5049909;28;20413;-76
2024/01/22 07:32:59;;;;;;;5.07;2.75;;;7.40;42.70;;;6.04;100.00;100623.22;5063021;28;20044;-76
2024/01/22 07:35:26;;;;;;;5.72;3.75;;;7.40;18.00;;;6.16;100.00;100611.88;5075185;28;20059;-76
2024/01/22 07:37:53;;;;;;;5.72;2.67;;;7.60;10.70;;;6.19;100.00;100624.06;5061331;28;20124;-77
2024/01/22 07:40:20;;;;;;;2.60;2.22;;;7.60;25.70;;;6.06;100.00;100608.41;5052661;28;20048;-76
2024/01/22 07:42:48;;;;;;;2.83;2.03;;;8.60;15.20;;;6.28;100.00;100626.69;5035355;28;20482;-75
2024/01/22 07:45:15;;;;;;;3.28;2.20;;;7.70;28.40;;;6.34;100.00;100631.03;5031054;28;20037;-75
2024/01/22 07:47:43;;;;;;;2.05;1.80;;;7.70;71.50;;;6.36;100.00;100635.38;5050367;28;20048;-76
2024/01/22 07:50:12;;;;;;;4.30;2.45;;;7.80;89.00;;;6.37;100.00;100631.88;5054095;28;20048;-76
2024/01/22 07:52:41;;;;;;;3.80;2.28;;;7.80;99.90;;;6.39;100.00;100635.34;5035175;28;20139;-75
2024/01/22 07:55:16;;;;;;;2.28;2.08;;;8.60;99.90;;;6.39;100.00;100631.88;5053771;28;20093;-75
2024/01/22 07:57:43;;;;;;;2.50;2.30;;;7.80;99.90;;;6.50;100.00;100655.38;5035487;28;20084;-76
2024/01/22 08:00:11;;;;;;;3.63;2.60;;;7.80;99.90;;;6.48;100.00;100642.31;5062629;28;20048;-77
2024/01/22 08:02:39;;;;;;;3.03;1.77;;;7.90;99.90;;;6.57;100.00;100646.66;5051935;28;20050;-77
2024/01/22 08:05:07;;;;;;;3.80;2.25;;;8.00;99.90;;;6.64;100.00;100648.38;5069566;28;20119;-76
2024/01/22 08:07:34;;;;;;;3.15;1.85;;;8.00;99.90;;;6.80;100.00;100640.47;5034993;28;20048;-76
2024/01/22 08:10:02;;;;;;;4.90;2.67;;;8.10;82.20;;;7.00;100.00;100657.81;5035362;28;20033;-77
2024/01/22 08:12:32;;;;;;;3.33;2.08;;;8.30;21.50;;;7.20;100.00;100655.97;5051235;28;20582;-76
2024/01/22 08:15:01;;;;;;;2.55;1.88;;;8.40;22.70;;;7.23;100.00;100652.47;5016252;28;20044;-76
2024/01/22 08:17:28;;;;;;;2.95;1.92;;;8.50;10.70;;;7.14;100.00;100642.91;5072445;28;20076;-76
2024/01/22 08:19:56;;;;;;;2.85;2.17;;;8.50;90.50;;;7.21;100.00;100659.44;5084560;28;20090;-76
2024/01/22 08:22:23;;;;;;;2.80;2.00;;;8.50;77.00;;;7.24;100.00;100664.66;5048607;28;20149;-78
2024/01/22 08:24:50;;;;;;;4.10;2.28;;;8.50;92.10;;;7.30;100.00;100666.38;5067372;28;20116;-77
2024/01/22 08:27:17;;;;;;;3.38;2.42;;;8.60;87.50;;;7.38;100.00;100646.28;5050819;28;20086;-78
2024/01/22 08:29:47;;;;;;;5.47;2.10;;;9.30;97.80;;;7.34;100.00;100648.03;5034895;28;20131;-75
2024/01/22 08:32:17;;;;;;;3.28;2.20;;;8.70;99.90;;;7.40;100.00;100655.00;5034839;28;20056;-75
2024/01/22 08:34:47;;;;;;;2.50;2.00;;;8.70;99.90;;;7.43;100.00;100656.72;5010622;28;20068;-75
2024/01/22 08:37:14;;;;;;;4.07;2.30;;;8.70;99.90;;;7.42;100.00;100660.22;5050769;28;20128;-78
2024/01/22 08:39:41;;;;;;;4.93;2.72;;;8.80;99.90;;;7.43;100.00;100651.50;5059100;28;20067;-76
2024/01/22 08:42:08;;;;;;;5.68;2.75;;;8.70;99.90;;;7.47;100.00;100667.16;5055077;28;20101;-75
2024/01/22 08:44:38;;;;;;;4.40;2.47;;;8.80;1.00;;;7.45;100.00;100689.84;5072748;28;20032;-76
2024/01/22 08:47:05;;;;;;;8.07;3.78;;;8.80;1.00;;;7.44;100.00;100676.78;5071543;28;20040;-77
2024/01/22 08:49:32;;;;;;;4.60;2.67;;;8.70;88.20;;;7.47;100.00;100695.09;5055783;28;20040;-76
2024/01/22 08:52:03;;;;;;;4.65;2.50;;;8.70;1.00;;;7.47;100.00;100695.09;5073139;28;20087;-76
2024/01/22 08:54:30;;;;;;;7.90;3.65;;;8.70;99.90;;;7.42;100.00;100692.50;5062750;28;20049;-77
2024/01/22 08:56:57;;;;;;;4.85;2.63;;;8.70;99.90;;;7.34;100.00;100692.53;5037755;28;20059;-75
2024/01/22 08:59:24;;;;;;;4.47;2.45;;;8.70;1.00;;;7.37;100.00;100702.13;5035593;28;20040;-76
2024/01/22 09:01:51;;;;;;;3.78;2.45;;;8.70;1.00;;;7.32;100.00;100693.41;5069190;28;20176;-75
2024/01/22 09:04:19;;;;;;;2.55;2.03;;;9.20;99.90;;;7.32;100.00;100693.41;5041308;28;20052;-75
2024/01/22 09:06:52;;;;;;;4.50;2.13;;;8.90;1.00;;;7.35;100.00;100690.81;5051747;28;20032;-75
2024/01/22 09:09:19;;;;;;;;;;;8.60;99.90;;;7.32;100.00;100689.06;5071077;28;20856;-75
2024/01/22 09:11:46;;;;;;;6.45;2.40;;;8.60;99.90;;;7.37;100.00;100682.03;5052793;28;19920;-75
2024/01/22 09:14:13;;;;;;;4.20;2.10;;;8.70;99.90;;;7.42;100.00;100696.88;5052768;28;20060;-74
2024/01/22 09:16:43;;;;;;;3.13;2.17;;;8.60;99.90;;;7.44;100.00;100688.13;5052447;28;20140;-75
2024/01/22 09:19:10;;;;;;;;;;;8.70;1.00;;;7.43;100.00;100664.59;5019953;28;20044;-74
2024/01/22 09:21:37;;;;;;;3.10;2.30;;;8.70;1.00;;;7.39;100.00;100674.19;5036032;28;20565;-77
2024/01/22 09:24:05;;;;;;;4.75;2.70;;;8.70;1.00;;;7.27;100.00;100655.94;5069078;28;20372;-74
2024/01/22 09:26:32;;;;;;;6.30;3.10;;;8.60;1.00;;;7.29;100.00;100664.66;5070148;28;20048;-74
2024/01/22 09:28:59;;;;;;;7.00;3.78;;;8.60;1.00;;;7.21;100.00;100668.19;5052387;28;20037;-77
2024/01/22 09:31:26;;;;;;;5.20;3.47;;;8.60;1.00;;;7.23;100.00;100655.97;5052408;28;20588;-75
2024/01/22 09:33:53;;;;;;;8.18;3.63;;;8.60;1.00;;;7.23;100.00;100655.06;5060699;28;20048;-76
2024/01/22 09:36:21;;;;;;;5.60;4.10;;;8.60;1.00;;;7.36;100.00;100654.13;5049211;28;20076;-74
2024/01/22 09:38:51;;;;;;;5.60;3.33;;;8.70;1.00;;;7.46;100.00;100644.47;5051613;28;20052;-74
2024/01/22 09:41:18;;;;;;;4.22;2.92;;;8.70;1.00;;;7.43;100.00;100635.78;5069906;28;20074;-75
2024/01/22 09:43:47;;;;;;;4.82;3.17;;;8.80;1.00;;;7.60;100.00;100639.16;5052314;28;20633;-74
2024/01/22 09:46:14;;;;;;;9.05;4.78;;;8.90;1.00;;;7.63;100.00;100633.00;5041619;28;20154;-73
2024/01/22 09:48:48;;;;;;;8.43;4.75;;;8.90;1.00;;;7.68;100.00;100632.97;5069736;28;20044;-73
2024/01/22 09:51:17;;;;;;;32.42;16.00;;;8.90;1.00;;;7.63;100.00;100626.03;5053089;28;20052;-73
2024/01/22 09:53:47;;;;;;;13.98;6.97;;;8.90;1.00;;;7.61;100.00;100627.78;5054590;28;20044;-75
2024/01/22 09:56:19;;;;;;;3.88;3.05;;;8.90;1.00;;;7.69;100.00;100617.25;5051616;28;20102;-74
2024/01/22 09:58:56;;;;;;;4.70;2.50;;;8.90;1.00;;;7.68;100.00;100604.16;5052115;28;20066;-74
2024/01/22 10:01:24;;;;;;;3.35;2.88;;;9.00;1.00;;;7.63;100.00;100605.06;5040086;28;20045;-73
2024/01/22 10:03:57;;;;;;;2.60;2.20;;;9.00;1.00;;;7.68;100.00;100606.78;5052052;28;20036;-73
2024/01/22 10:06:26;;;;;;;5.90;3.22;;;9.00;1.00;;;7.66;100.00;100609.44;5035295;28;20049;-74
2024/01/22 10:08:58;;;;;;;8.05;4.28;;;9.00;1.00;;;7.67;100.00;100603.31;5051947;28;20041;-73
2024/01/22 10:11:30;;;;;;;8.38;4.07;;;9.00;1.00;;;7.79;100.00;100618.03;5035199;28;20531;-74
2024/01/22 10:13:58;;;;;;;5.82;4.18;;;9.10;1.00;;;7.79;100.00;100612.81;5052024;28;20102;-73
2024/01/22 10:16:29;;;;;;;8.07;2.90;;;9.00;1.00;;;7.72;100.00;100600.63;5058465;28;20071;-73
2024/01/22 10:19:08;;;;;;;5.60;3.10;;;9.00;1.00;;;7.71;100.00;100596.28;5051405;28;20465;-73
2024/01/22 10:21:38;;;;;;;6.15;3.95;;;9.00;1.00;;;7.73;100.00;100598.00;5052324;28;20094;-73
2024/01/22 10:24:11;;;;;;;6.03;3.47;;;9.00;2.30;;;7.72;100.00;100606.75;5052105;28;20043;-73